createdAt,value
2022-09-13T00:02:39.126Z,3.40
2022-09-13T00:05:27.225Z,2.93
2022-09-13T00:08:15.659Z,2.67
2022-09-13T00:11:03.910Z,3.17
2022-09-13T00:13:52.661Z,2.57
2022-09-13T00:16:40.258Z,3.00
2022-09-13T00:19:27.662Z,3.13
2022-09-13T00:22:15.137Z,2.30
2022-09-13T00:25:07.710Z,3.00
2022-09-13T00:27:55.229Z,2.50
2022-09-13T00:30:42.654Z,3.03
2022-09-13T00:33:30.286Z,3.17
2022-09-13T00:36:18.028Z,2.33
2022-09-13T00:39:05.602Z,2.90
2022-09-13T00:41:53.304Z,2.67
2022-09-13T00:45:07.314Z,3.20
2022-09-13T00:48:11.339Z,3.43
2022-09-13T00:50:59.021Z,2.23
2022-09-13T00:53:54.590Z,2.27
2022-09-13T00:56:49.034Z,3.07
2022-09-13T00:59:51.880Z,2.90
2022-09-13T01:02:51.980Z,2.73
2022-09-13T01:05:47.856Z,2.50
2022-09-13T01:08:40.394Z,3.30
2022-09-13T01:11:39.379Z,2.60
2022-09-13T01:14:28.496Z,2.37
2022-09-13T01:17:15.930Z,2.70
2022-09-13T01:20:06.150Z,2.73
2022-09-13T01:23:16.309Z,2.40
2022-09-13T01:26:28.180Z,2.77
2022-09-13T01:29:37.434Z,3.60
2022-09-13T01:33:09.639Z,2.80
2022-09-13T01:36:19.394Z,2.73
2022-09-13T01:39:55.684Z,2.73
2022-09-13T01:43:08.039Z,2.93
2022-09-13T01:46:38.224Z,3.40
2022-09-13T01:49:53.540Z,2.50
2022-09-13T01:52:56.091Z,3.30
2022-09-13T01:55:57.936Z,4.40
2022-09-13T01:59:01.386Z,2.93
2022-09-13T02:02:10.650Z,2.97
2022-09-13T02:05:15.225Z,2.90
2022-09-13T02:08:13.075Z,2.37
2022-09-13T02:11:17.424Z,2.30
2022-09-13T02:14:32.115Z,2.90
2022-09-13T02:17:28.596Z,3.33
2022-09-13T02:20:31.127Z,3.33
2022-09-13T02:23:38.070Z,3.10
2022-09-13T02:26:29.319Z,2.80
2022-09-13T02:29:21.213Z,2.70
2022-09-13T02:32:26.482Z,3.23
2022-09-13T02:35:22.939Z,3.37
2022-09-13T02:38:24.022Z,2.70
2022-09-13T02:41:18.179Z,2.10
2022-09-13T02:44:24.181Z,2.73
2022-09-13T02:47:39.951Z,2.13
2022-09-13T02:51:08.365Z,2.50
2022-09-13T02:54:10.856Z,2.67
2022-09-13T02:57:27.415Z,2.73
2022-09-13T03:00:15.102Z,3.37
2022-09-13T03:03:09.129Z,2.80
2022-09-13T03:05:56.892Z,3.13
2022-09-13T03:08:44.401Z,2.83
2022-09-13T03:11:53.129Z,2.80
2022-09-13T03:15:44.235Z,3.13
2022-09-13T03:19:07.301Z,2.93
2022-09-13T03:22:44.384Z,2.03
2022-09-13T03:26:00.884Z,2.30
2022-09-13T03:29:18.886Z,1.90
2022-09-13T03:32:45.109Z,2.50
2022-09-13T03:35:42.531Z,2.30
2022-09-13T03:38:55.406Z,2.47
2022-09-13T03:41:51.620Z,2.73
2022-09-13T03:44:42.645Z,2.70
2022-09-13T03:47:36.549Z,2.50
2022-09-13T03:50:27.013Z,2.47
2022-09-13T03:53:23.596Z,2.53
2022-09-13T03:56:20.537Z,2.33
2022-09-13T03:59:08.299Z,2.27
2022-09-13T04:01:55.815Z,2.27
2022-09-13T04:04:45.510Z,2.60
2022-09-13T04:07:33.455Z,3.27
2022-09-13T04:10:22.028Z,2.50
2022-09-13T04:13:09.651Z,2.13
2022-09-13T04:16:05.524Z,3.67
2022-09-13T04:18:53.009Z,2.17
2022-09-13T04:21:40.540Z,2.33
2022-09-13T04:24:31.295Z,1.93
2022-09-13T04:27:18.831Z,1.97
2022-09-13T04:30:07.290Z,2.93
2022-09-13T04:32:57.256Z,2.43
2022-09-13T04:35:44.895Z,2.83
2022-09-13T04:38:32.790Z,1.47
2022-09-13T04:41:20.339Z,2.40
2022-09-13T04:44:07.913Z,2.13
2022-09-13T04:46:55.899Z,1.80
2022-09-13T04:49:43.405Z,2.60
2022-09-13T04:52:30.921Z,2.73
2022-09-13T04:55:18.510Z,2.53
2022-09-13T04:58:06.291Z,2.37
2022-09-13T05:00:56.919Z,2.60
2022-09-13T05:03:44.645Z,2.67
2022-09-13T05:06:32.230Z,3.03
2022-09-13T05:09:19.759Z,2.77
2022-09-13T05:12:07.534Z,2.73
2022-09-13T05:14:54.944Z,3.10
2022-09-13T05:17:42.494Z,2.93
2022-09-13T05:20:29.930Z,3.07
2022-09-13T05:23:17.448Z,3.10
2022-09-13T05:26:07.405Z,3.50
2022-09-13T05:28:55.030Z,3.10
2022-09-13T05:31:43.870Z,3.03
2022-09-13T05:34:31.287Z,2.90
2022-09-13T05:37:19.341Z,2.17
2022-09-13T05:40:11.501Z,2.63
2022-09-13T05:42:59.913Z,2.13
2022-09-13T05:45:47.476Z,2.07
2022-09-13T05:48:36.529Z,2.27
2022-09-13T05:51:24.080Z,2.60
2022-09-13T05:54:14.757Z,3.30
2022-09-13T05:57:02.175Z,2.80
2022-09-13T05:59:49.606Z,2.33
2022-09-13T06:02:37.213Z,2.83
2022-09-13T06:05:28.643Z,2.40
2022-09-13T06:08:18.882Z,2.50
2022-09-13T06:11:10.351Z,3.27
2022-09-13T06:13:57.877Z,2.70
2022-09-13T06:16:45.416Z,2.10
2022-09-13T06:19:32.879Z,2.67
2022-09-13T06:22:20.435Z,3.10
2022-09-13T06:25:09.620Z,3.00
2022-09-13T06:27:57.121Z,2.87
2022-09-13T06:30:44.975Z,2.60
2022-09-13T06:33:36.636Z,3.20
2022-09-13T06:36:24.905Z,2.80
2022-09-13T06:39:12.700Z,3.03
2022-09-13T06:42:00.889Z,2.70
2022-09-13T06:44:48.711Z,3.20
2022-09-13T06:47:36.186Z,3.90
2022-09-13T06:50:26.442Z,2.80
2022-09-13T06:53:14.060Z,2.90
2022-09-13T06:56:18.190Z,2.50
2022-09-13T06:59:11.747Z,2.97
2022-09-13T07:01:59.229Z,3.20
2022-09-13T07:04:46.754Z,2.83
2022-09-13T07:07:34.225Z,3.10
2022-09-13T07:10:21.716Z,3.40
2022-09-13T07:13:09.824Z,3.33
2022-09-13T07:15:57.702Z,2.53
2022-09-13T07:18:45.932Z,2.83
2022-09-13T07:21:35.702Z,2.77
2022-09-13T07:24:24.152Z,3.13
2022-09-13T07:27:12.944Z,2.97
2022-09-13T07:30:00.349Z,3.30
2022-09-13T07:32:47.785Z,4.30
2022-09-13T07:35:35.190Z,3.50
2022-09-13T07:38:22.589Z,3.53
2022-09-13T07:41:14.421Z,2.90
2022-09-13T07:44:03.094Z,3.30
2022-09-13T07:46:50.525Z,3.03
2022-09-13T07:49:37.980Z,2.90
2022-09-13T07:52:25.739Z,3.17
2022-09-13T07:55:13.305Z,3.35
2022-09-13T07:58:00.774Z,3.17
2022-09-13T08:00:48.370Z,2.63
2022-09-13T08:03:37.762Z,2.70
2022-09-13T08:06:27.901Z,2.60
2022-09-13T08:09:16.485Z,3.45
2022-09-13T08:12:04.014Z,3.17
2022-09-13T08:14:51.425Z,4.53
2022-09-13T08:17:38.855Z,3.90
2022-09-13T08:20:26.254Z,3.83
2022-09-13T08:23:14.589Z,4.75
2022-09-13T08:26:03.754Z,3.60
2022-09-13T08:29:05.049Z,3.60
2022-09-13T08:31:52.636Z,3.67
2022-09-13T08:34:40.069Z,3.40
2022-09-13T08:37:27.740Z,3.20
2022-09-13T08:40:16.881Z,3.47
2022-09-13T08:43:35.185Z,3.38
2022-09-13T08:47:27.236Z,3.40
2022-09-13T08:50:23.645Z,3.72
2022-09-13T08:53:31.940Z,4.10
2022-09-13T08:56:41.589Z,5.00
2022-09-13T08:59:56.175Z,2.72
2022-09-13T09:03:02.831Z,3.08
2022-09-13T09:05:52.595Z,2.53
2022-09-13T09:08:52.805Z,2.92
2022-09-13T09:11:42.993Z,2.88
2022-09-13T09:14:42.625Z,2.95
2022-09-13T09:18:12.315Z,2.80
2022-09-13T09:21:04.316Z,2.55
2022-09-13T09:23:54.845Z,3.10
2022-09-13T09:26:42.311Z,2.17
2022-09-13T09:29:37.180Z,2.22
2022-09-13T09:32:52.685Z,1.75
2022-09-13T09:36:13.386Z,1.90
2022-09-13T09:39:00.950Z,2.05
2022-09-13T09:41:48.823Z,2.33
2022-09-13T09:44:39.834Z,2.10
2022-09-13T09:47:43.210Z,1.90
2022-09-13T09:50:53.521Z,2.35
2022-09-13T09:53:47.537Z,1.83
2022-09-13T09:56:36.453Z,2.10
2022-09-13T09:59:33.967Z,2.30
2022-09-13T10:02:22.716Z,2.13
2022-09-13T10:05:14.406Z,2.10
2022-09-13T10:08:06.958Z,2.20
2022-09-13T10:10:57.664Z,2.15
2022-09-13T10:14:03.524Z,2.13
2022-09-13T10:17:27.969Z,1.90
2022-09-13T10:20:15.339Z,2.03
2022-09-13T10:23:14.919Z,1.90
2022-09-13T10:26:26.329Z,1.58
2022-09-13T10:29:18.854Z,1.98
2022-09-13T10:32:09.729Z,1.50
2022-09-13T10:35:15.914Z,1.77
2022-09-13T10:38:03.460Z,1.80
2022-09-13T10:40:50.940Z,2.53
2022-09-13T10:43:39.007Z,2.15
2022-09-13T10:46:36.370Z,1.73
2022-09-13T10:49:47.693Z,2.05
2022-09-13T10:52:49.812Z,1.67
2022-09-13T10:55:40.891Z,1.50
2022-09-13T10:58:28.393Z,2.20
2022-09-13T11:02:06.169Z,2.15
2022-09-13T11:05:19.832Z,2.42
2022-09-13T11:08:57.656Z,2.28
2022-09-13T11:12:26.876Z,2.00
2022-09-13T11:16:06.050Z,1.55
2022-09-13T11:19:11.427Z,2.40
2022-09-13T11:22:46.029Z,2.00
2022-09-13T11:26:02.746Z,2.42
2022-09-13T11:29:39.341Z,2.28
2022-09-13T11:32:50.600Z,2.17
2022-09-13T11:36:14.655Z,2.10
2022-09-13T11:39:09.139Z,2.25
2022-09-13T11:42:40.749Z,2.20
2022-09-13T11:45:33.538Z,2.15
2022-09-13T11:49:00.945Z,2.20
2022-09-13T11:52:20.750Z,2.28
2022-09-13T11:55:35.090Z,2.30
2022-09-13T11:58:32.974Z,1.92
2022-09-13T12:01:40.414Z,2.13
2022-09-13T12:04:42.229Z,2.47
2022-09-13T12:07:44.166Z,2.05
2022-09-13T12:11:21.394Z,2.45
2022-09-13T12:14:18.119Z,1.80
2022-09-13T12:17:21.494Z,2.13
2022-09-13T12:20:32.929Z,1.95
2022-09-13T12:23:44.860Z,2.10
2022-09-13T12:26:56.210Z,2.45
2022-09-13T12:29:56.709Z,1.95
2022-09-13T12:32:46.493Z,1.70
2022-09-13T12:36:01.865Z,2.00
2022-09-13T12:39:26.689Z,2.15
2022-09-13T12:42:52.653Z,1.98
2022-09-13T12:46:23.303Z,1.90
2022-09-13T12:50:36.530Z,2.10
2022-09-13T12:53:29.192Z,2.10
2022-09-13T12:57:02.254Z,2.00
2022-09-13T13:00:31.274Z,2.40
2022-09-13T13:03:20.291Z,2.08
2022-09-13T13:06:23.839Z,1.85
2022-09-13T13:09:41.206Z,1.95
2022-09-13T13:12:38.449Z,1.83
2022-09-13T13:15:25.820Z,1.75
2022-09-13T13:18:45.064Z,2.03
2022-09-13T13:21:41.045Z,2.08
2022-09-13T13:24:28.449Z,2.50
2022-09-13T13:27:47.551Z,2.40
2022-09-13T13:30:53.090Z,2.15
2022-09-13T13:33:53.309Z,2.00
2022-09-13T13:36:41.085Z,1.73
2022-09-13T13:39:28.694Z,2.05
2022-09-13T13:42:39.683Z,2.10
2022-09-13T13:45:28.355Z,1.92
2022-09-13T13:48:16.077Z,2.10
2022-09-13T13:51:23.574Z,2.08
2022-09-13T13:54:54.140Z,2.05
2022-09-13T13:58:19.670Z,2.50
2022-09-13T14:01:11.759Z,2.22
2022-09-13T14:04:47.324Z,1.90
2022-09-13T14:07:46.470Z,1.70
2022-09-13T14:11:20.080Z,1.98
2022-09-13T14:14:35.099Z,2.08
2022-09-13T14:17:40.748Z,1.90
2022-09-13T14:20:28.530Z,1.50
2022-09-13T14:23:19.943Z,1.60
2022-09-13T14:26:07.945Z,1.65
2022-09-13T14:28:55.509Z,1.80
2022-09-13T14:31:51.047Z,1.73
2022-09-13T14:34:39.604Z,2.08
2022-09-13T14:37:31.303Z,1.60
2022-09-13T14:40:27.811Z,1.75
2022-09-13T14:43:23.189Z,1.65
2022-09-13T14:46:31.654Z,2.28
2022-09-13T14:49:30.534Z,1.63
2022-09-13T14:52:26.567Z,1.58
2022-09-13T14:55:20.414Z,1.50
2022-09-13T14:58:26.693Z,1.70
2022-09-13T15:01:20.521Z,2.15
2022-09-13T15:04:08.281Z,2.30
2022-09-13T15:07:20.945Z,1.88
2022-09-13T15:10:30.039Z,1.65
2022-09-13T15:13:17.574Z,1.88
2022-09-13T15:16:32.276Z,1.55
2022-09-13T15:19:30.121Z,1.63
2022-09-13T15:22:24.554Z,1.40
2022-09-13T15:25:27.739Z,1.50
2022-09-13T15:28:34.773Z,1.52
2022-09-13T15:31:25.984Z,1.45
2022-09-13T15:34:21.814Z,1.20
2022-09-13T15:37:15.358Z,1.85
2022-09-13T15:40:18.929Z,1.40
2022-09-13T15:43:07.222Z,1.63
2022-09-13T15:45:57.124Z,1.50
2022-09-13T15:49:08.591Z,1.60
2022-09-13T15:51:59.688Z,1.52
2022-09-13T15:54:51.084Z,1.90
2022-09-13T15:57:38.596Z,1.85
2022-09-13T16:00:28.381Z,1.85
2022-09-13T16:03:15.870Z,2.25
2022-09-13T16:06:03.400Z,2.17
2022-09-13T16:08:50.892Z,2.42
2022-09-13T16:12:06.164Z,2.75
2022-09-13T16:14:54.770Z,2.25
2022-09-13T16:17:42.995Z,2.72
2022-09-13T16:20:30.602Z,3.03
2022-09-13T16:23:18.284Z,2.58
2022-09-13T16:26:06.323Z,2.92
2022-09-13T16:28:53.825Z,2.83
2022-09-13T16:31:41.972Z,2.47
2022-09-13T16:34:29.585Z,2.35
2022-09-13T16:37:19.436Z,1.83
2022-09-13T16:40:10.270Z,2.65
2022-09-13T16:43:00.906Z,2.70
2022-09-13T16:45:50.561Z,2.28
2022-09-13T16:48:38.094Z,2.20
2022-09-13T16:51:26.344Z,2.67
2022-09-13T16:54:14.050Z,2.65
2022-09-13T16:57:04.341Z,3.08
2022-09-13T16:59:53.126Z,3.33
2022-09-13T17:02:40.774Z,3.42
2022-09-13T17:05:28.419Z,3.15
2022-09-13T17:08:15.965Z,2.95
2022-09-13T17:11:14.626Z,3.45
2022-09-13T17:14:05.160Z,2.40
2022-09-13T17:16:56.594Z,2.95
2022-09-13T17:19:45.119Z,2.97
2022-09-13T17:22:32.559Z,2.50
2022-09-13T17:25:20.972Z,2.47
2022-09-13T17:28:08.439Z,2.28
2022-09-13T17:30:58.461Z,2.85
2022-09-13T17:33:50.207Z,2.60
2022-09-13T17:36:40.814Z,2.40
2022-09-13T17:39:28.269Z,2.42
2022-09-13T17:42:17.336Z,2.15
2022-09-13T17:45:06.931Z,2.63
2022-09-13T17:47:56.916Z,1.90
2022-09-13T17:50:44.336Z,1.95
2022-09-13T17:53:32.531Z,2.33
2022-09-13T17:56:38.892Z,2.22
2022-09-13T17:59:26.644Z,2.38
2022-09-13T18:02:14.192Z,3.40
2022-09-13T18:05:05.731Z,2.30
2022-09-13T18:07:54.549Z,2.88
2022-09-13T18:11:03.788Z,2.30
2022-09-13T18:13:50.861Z,2.88
2022-09-13T18:16:38.319Z,3.10
2022-09-13T18:19:44.695Z,2.38
2022-09-13T18:22:33.205Z,2.55
2022-09-13T18:25:23.727Z,2.30
2022-09-13T18:28:11.269Z,2.17
2022-09-13T18:31:02.901Z,2.88
2022-09-13T18:34:00.271Z,2.72
2022-09-13T18:36:48.110Z,3.00
2022-09-13T18:39:36.515Z,2.47
2022-09-13T18:42:23.964Z,2.53
2022-09-13T18:45:11.499Z,2.30
2022-09-13T18:47:58.985Z,2.65
2022-09-13T18:50:46.605Z,2.70
2022-09-13T18:53:35.664Z,2.10
2022-09-13T18:56:24.721Z,2.97
2022-09-13T18:59:12.716Z,2.20
2022-09-13T19:02:00.350Z,2.47
2022-09-13T19:04:48.755Z,2.28
2022-09-13T19:07:36.255Z,2.63
2022-09-13T19:10:23.939Z,2.33
2022-09-13T19:13:11.944Z,2.80
2022-09-13T19:16:12.325Z,2.30
2022-09-13T19:19:02.801Z,3.05
2022-09-13T19:21:50.687Z,1.83
2022-09-13T19:24:38.494Z,2.40
2022-09-13T19:27:26.139Z,2.70
2022-09-13T19:30:13.729Z,3.22
2022-09-13T19:33:01.303Z,2.25
2022-09-13T19:35:48.764Z,2.85
2022-09-13T19:38:37.420Z,2.55
2022-09-13T19:41:28.449Z,2.53
2022-09-13T19:44:16.159Z,2.72
2022-09-13T19:47:53.255Z,2.75
2022-09-13T19:50:13.226Z,2.88
2022-09-13T19:53:00.844Z,2.38
2022-09-13T19:55:49.935Z,2.58
2022-09-13T19:58:37.960Z,2.25
2022-09-13T20:01:31.779Z,2.58
2022-09-13T20:04:23.687Z,2.60
2022-09-13T20:07:13.408Z,2.40
2022-09-13T20:10:01.538Z,2.45
2022-09-13T20:12:50.767Z,2.55
2022-09-13T20:15:39.139Z,2.00
2022-09-13T20:18:30.120Z,2.40
2022-09-13T20:21:18.424Z,2.60
2022-09-13T20:24:07.951Z,3.00
2022-09-13T20:26:55.484Z,2.67
2022-09-13T20:29:42.950Z,2.60
2022-09-13T20:32:31.060Z,3.33
2022-09-13T20:35:18.455Z,2.47
2022-09-13T20:38:06.635Z,2.58
2022-09-13T20:40:54.216Z,3.35
2022-09-13T20:43:42.263Z,3.25
2022-09-13T20:46:31.801Z,3.08
2022-09-13T20:49:19.899Z,3.25
2022-09-13T20:52:07.289Z,3.42
2022-09-13T20:54:54.764Z,3.47
2022-09-13T20:57:42.831Z,3.10
2022-09-13T21:00:30.226Z,3.80
2022-09-13T21:03:17.721Z,3.08
2022-09-13T21:06:07.380Z,3.45
2022-09-13T21:08:56.483Z,2.55
2022-09-13T21:11:44.022Z,3.78
2022-09-13T21:14:32.249Z,4.05
2022-09-13T21:17:20.505Z,2.72
2022-09-13T21:20:08.380Z,2.80
2022-09-13T21:22:55.766Z,6.82
2022-09-13T21:25:43.140Z,2.80
2022-09-13T21:28:31.111Z,3.30
2022-09-13T21:31:25.619Z,3.20
2022-09-13T21:34:18.568Z,2.42
2022-09-13T21:37:06.064Z,3.63
2022-09-13T21:39:53.504Z,3.63
2022-09-13T21:42:40.875Z,2.65
2022-09-13T21:45:28.390Z,3.08
2022-09-13T21:48:15.799Z,3.33
2022-09-13T21:51:17.060Z,4.10
2022-09-13T21:54:09.070Z,3.80
2022-09-13T21:56:56.484Z,3.13
2022-09-13T21:59:44.099Z,3.17
2022-09-13T22:02:31.857Z,3.25
2022-09-13T22:05:19.444Z,3.42
2022-09-13T22:08:06.834Z,3.25
2022-09-13T22:10:54.286Z,3.20
2022-09-13T22:13:47.712Z,2.90
2022-09-13T22:16:39.283Z,2.88
2022-09-13T22:19:28.184Z,3.70
2022-09-13T22:22:15.555Z,2.83
2022-09-13T22:25:03.075Z,3.88
2022-09-13T22:27:50.485Z,3.30
2022-09-13T22:30:37.996Z,3.40
2022-09-13T22:33:25.441Z,3.17
2022-09-13T22:36:15.944Z,2.92
2022-09-13T22:39:05.201Z,2.75
2022-09-13T22:41:52.601Z,3.05
2022-09-13T22:44:40.048Z,2.85
2022-09-13T22:47:28.287Z,2.80
2022-09-13T22:50:15.865Z,3.42
2022-09-13T22:53:03.600Z,2.92
2022-09-13T22:55:51.421Z,2.80
2022-09-13T22:58:39.595Z,3.40
2022-09-13T23:01:29.593Z,3.20
2022-09-13T23:04:17.933Z,2.80
2022-09-13T23:07:05.420Z,2.60
2022-09-13T23:09:52.860Z,2.63
2022-09-13T23:12:40.340Z,2.55
2022-09-13T23:15:27.775Z,2.50
2022-09-13T23:18:15.236Z,2.60
2022-09-13T23:21:02.976Z,2.60
2022-09-13T23:23:50.891Z,3.65
2022-09-13T23:26:38.903Z,3.33
2022-09-13T23:29:26.347Z,2.80
2022-09-13T23:32:13.830Z,3.33
2022-09-13T23:35:01.346Z,3.72
2022-09-13T23:37:49.095Z,2.97
2022-09-13T23:40:36.735Z,2.60
2022-09-13T23:43:25.307Z,3.13
2022-09-13T23:46:13.521Z,2.67
2022-09-13T23:49:01.111Z,2.80
2022-09-13T23:51:49.326Z,2.90
2022-09-13T23:54:36.775Z,3.20
2022-09-13T23:57:24.345Z,2.85
